createdAt,value
2018-04-29T00:02:12.846Z,78.26
2018-04-29T00:04:40.756Z,78.30
2018-04-29T00:07:08.297Z,78.31
2018-04-29T00:09:35.839Z,78.37
2018-04-29T00:12:03.583Z,77.13
2018-04-29T00:14:31.122Z,77.20
2018-04-29T00:16:58.662Z,78.07
2018-04-29T00:19:26.608Z,77.99
2018-04-29T00:21:54.142Z,78.03
2018-04-29T00:24:21.683Z,78.16
2018-04-29T00:26:49.242Z,78.42
2018-04-29T00:29:16.787Z,78.61
2018-04-29T00:31:44.376Z,78.88
2018-04-29T00:34:12.032Z,79.14
2018-04-29T00:36:39.573Z,79.24
2018-04-29T00:39:07.131Z,79.38
2018-04-29T00:41:34.872Z,79.33
2018-04-29T00:44:02.503Z,79.41
2018-04-29T00:46:30.047Z,80.42
2018-04-29T00:48:57.612Z,80.46
2018-04-29T00:51:37.043Z,80.37
2018-04-29T00:54:04.580Z,79.86
2018-04-29T00:56:32.120Z,79.83
2018-04-29T00:58:59.733Z,79.24
2018-04-29T01:01:27.249Z,78.11
2018-04-29T01:03:55.224Z,77.81
2018-04-29T01:06:22.754Z,78.03
2018-04-29T01:08:50.294Z,78.02
2018-04-29T01:11:17.930Z,78.84
2018-04-29T01:13:45.491Z,79.17
2018-04-29T01:16:13.042Z,79.24
2018-04-29T01:18:40.585Z,79.18
2018-04-29T01:21:08.633Z,78.94
2018-04-29T01:23:36.164Z,79.17
2018-04-29T01:26:03.701Z,79.08
2018-04-29T01:28:31.467Z,78.82
2018-04-29T01:30:59.009Z,77.54
2018-04-29T01:33:26.549Z,78.04
2018-04-29T01:35:54.147Z,78.85
2018-04-29T01:38:21.674Z,78.94
2018-04-29T01:40:49.195Z,78.91
2018-04-29T01:43:16.771Z,78.31
2018-04-29T01:45:44.330Z,78.05
2018-04-29T01:48:11.853Z,79.14
2018-04-29T01:50:39.398Z,79.32
2018-04-29T01:53:06.962Z,79.33
2018-04-29T01:55:34.485Z,79.43
2018-04-29T01:58:02.043Z,79.44
2018-04-29T02:00:29.584Z,79.41
2018-04-29T02:02:57.139Z,79.38
2018-04-29T02:05:24.684Z,79.56
2018-04-29T02:07:52.223Z,79.52
2018-04-29T02:10:19.780Z,79.46
2018-04-29T02:12:47.358Z,79.46
2018-04-29T02:15:14.883Z,80.09
2018-04-29T02:17:42.415Z,80.25
2018-04-29T02:20:09.967Z,80.32
2018-04-29T02:22:37.506Z,79.10
2018-04-29T02:25:05.543Z,78.25
2018-04-29T02:27:33.079Z,77.91
2018-04-29T02:30:00.616Z,77.30
2018-04-29T02:32:28.185Z,77.25
2018-04-29T02:34:55.744Z,77.54
2018-04-29T02:37:23.807Z,77.74
2018-04-29T02:39:51.356Z,77.86
2018-04-29T02:42:18.890Z,78.52
2018-04-29T02:44:46.451Z,78.98
2018-04-29T02:47:13.986Z,79.09
2018-04-29T02:49:41.554Z,78.92
2018-04-29T02:52:09.089Z,78.26
2018-04-29T02:54:36.663Z,78.17
2018-04-29T02:57:04.220Z,77.46
2018-04-29T02:59:31.746Z,76.74
2018-04-29T03:01:59.750Z,77.62
2018-04-29T03:04:27.281Z,78.66
2018-04-29T03:06:54.824Z,78.78
2018-04-29T03:09:22.391Z,78.80
2018-04-29T03:11:49.971Z,79.03
2018-04-29T03:14:17.878Z,79.21
2018-04-29T03:16:45.417Z,79.33
2018-04-29T03:19:12.946Z,79.32
2018-04-29T03:21:40.520Z,79.31
2018-04-29T03:24:08.065Z,79.39
2018-04-29T03:26:35.660Z,79.38
2018-04-29T03:29:03.195Z,79.44
2018-04-29T03:31:30.728Z,79.51
2018-04-29T03:33:58.297Z,79.16
2018-04-29T03:36:25.821Z,78.50
2018-04-29T03:38:53.371Z,78.13
2018-04-29T03:41:20.903Z,77.61
2018-04-29T03:43:48.799Z,77.50
2018-04-29T03:46:16.336Z,77.87
2018-04-29T03:48:43.882Z,78.03
2018-04-29T03:51:11.455Z,78.04
2018-04-29T03:53:39.011Z,78.85
2018-04-29T03:56:06.635Z,78.92
2018-04-29T03:58:46.003Z,78.94
2018-04-29T04:01:25.470Z,79.36
2018-04-29T04:03:54.899Z,80.39
2018-04-29T04:06:22.441Z,80.54
2018-04-29T04:08:49.978Z,80.33
2018-04-29T04:11:17.921Z,80.27
2018-04-29T04:13:45.454Z,80.97
2018-04-29T04:16:12.983Z,81.57
2018-04-29T04:18:40.570Z,81.94
2018-04-29T04:21:08.102Z,82.39
2018-04-29T04:23:35.640Z,82.43
2018-04-29T04:26:03.195Z,82.45
2018-04-29T04:28:30.733Z,82.49
2018-04-29T04:30:58.299Z,82.48
2018-04-29T04:33:25.894Z,82.45
2018-04-29T04:35:53.422Z,82.57
2018-04-29T04:38:20.972Z,82.52
2018-04-29T04:40:48.553Z,81.81
2018-04-29T04:43:16.082Z,81.69
2018-04-29T04:45:43.650Z,81.45
2018-04-29T04:48:11.301Z,80.72
2018-04-29T04:50:38.860Z,79.29
2018-04-29T04:53:06.420Z,78.08
2018-04-29T04:55:33.951Z,77.51
2018-04-29T04:58:01.569Z,77.71
2018-04-29T05:00:29.108Z,78.41
2018-04-29T05:02:56.643Z,78.20
2018-04-29T05:05:24.603Z,76.99
2018-04-29T05:07:52.132Z,77.31
2018-04-29T05:10:19.674Z,75.29
2018-04-29T05:12:47.226Z,74.22
2018-04-29T05:15:14.758Z,74.26
2018-04-29T05:17:42.319Z,73.84
2018-04-29T05:20:10.059Z,73.11
2018-04-29T05:22:37.590Z,72.86
2018-04-29T05:25:05.116Z,72.36
2018-04-29T05:27:32.892Z,72.14
2018-04-29T05:30:00.438Z,72.00
2018-04-29T05:32:27.963Z,71.96
2018-04-29T05:34:55.588Z,71.84
2018-04-29T05:37:23.124Z,71.49
2018-04-29T05:39:50.861Z,71.38
2018-04-29T05:42:18.404Z,70.49
2018-04-29T05:44:45.946Z,70.85
2018-04-29T05:47:13.525Z,71.10
2018-04-29T05:49:41.069Z,70.54
2018-04-29T05:52:08.598Z,68.93
2018-04-29T05:54:36.162Z,69.18
2018-04-29T05:57:03.695Z,69.34
2018-04-29T05:59:31.780Z,68.96
2018-04-29T06:01:59.315Z,68.96
2018-04-29T06:04:26.845Z,69.56
2018-04-29T06:06:54.417Z,69.40
2018-04-29T06:09:21.970Z,69.36
2018-04-29T06:11:49.507Z,69.40
2018-04-29T06:14:17.063Z,68.95
2018-04-29T06:16:45.525Z,68.69
2018-04-29T06:19:13.059Z,68.37
2018-04-29T06:21:40.592Z,69.26
2018-04-29T06:24:08.152Z,68.65
2018-04-29T06:26:35.682Z,68.36
2018-04-29T06:29:03.215Z,68.42
2018-04-29T06:31:30.783Z,68.41
2018-04-29T06:33:58.362Z,68.34
2018-04-29T06:36:25.914Z,68.03
2018-04-29T06:38:53.477Z,67.61
2018-04-29T06:41:21.019Z,68.22
2018-04-29T06:43:48.578Z,68.40
2018-04-29T06:46:16.142Z,67.67
2018-04-29T06:48:43.680Z,66.67
2018-04-29T06:51:11.379Z,66.08
2018-04-29T06:53:38.910Z,64.63
2018-04-29T06:56:06.459Z,62.80
2018-04-29T06:58:33.991Z,62.11
2018-04-29T07:01:01.542Z,62.16
2018-04-29T07:03:29.071Z,60.73
2018-04-29T07:05:56.860Z,60.69
2018-04-29T07:08:24.407Z,60.72
2018-04-29T07:10:51.962Z,59.02
2018-04-29T07:13:19.659Z,59.63
2018-04-29T07:15:47.199Z,59.63
2018-04-29T07:18:14.732Z,60.56
2018-04-29T07:20:42.294Z,59.01
2018-04-29T07:23:09.872Z,57.51
2018-04-29T07:25:37.409Z,57.91
2018-04-29T07:28:04.934Z,59.37
2018-04-29T07:30:32.495Z,58.31
2018-04-29T07:33:00.067Z,58.41
2018-04-29T07:35:27.633Z,58.64
2018-04-29T07:37:55.179Z,58.53
2018-04-29T07:40:23.171Z,55.55
2018-04-29T07:42:50.738Z,56.39
2018-04-29T07:45:18.281Z,57.39
2018-04-29T07:47:45.834Z,57.73
2018-04-29T07:50:13.377Z,57.71
2018-04-29T07:52:40.944Z,58.53
2018-04-29T07:55:08.507Z,58.90
2018-04-29T07:57:36.072Z,58.62
2018-04-29T08:00:03.656Z,58.06
2018-04-29T08:02:31.211Z,58.79
2018-04-29T08:04:58.755Z,58.13
2018-04-29T08:07:26.316Z,57.55
2018-04-29T08:09:54.068Z,57.86
2018-04-29T08:12:21.608Z,57.48
2018-04-29T08:14:49.145Z,57.33
2018-04-29T08:17:16.711Z,57.24
2018-04-29T08:19:44.294Z,57.19
2018-04-29T08:22:11.820Z,56.50
2018-04-29T08:24:39.424Z,56.45
2018-04-29T08:27:06.982Z,56.33
2018-04-29T08:29:34.538Z,56.61
2018-04-29T08:32:02.062Z,56.01
2018-04-29T08:34:29.620Z,55.48
2018-04-29T08:36:57.185Z,56.53
2018-04-29T08:39:24.744Z,55.31
2018-04-29T08:41:52.315Z,56.63
2018-04-29T08:44:19.856Z,56.94
2018-04-29T08:46:47.446Z,56.07
2018-04-29T08:49:14.983Z,56.09
2018-04-29T08:51:42.532Z,55.91
2018-04-29T08:54:10.087Z,55.99
2018-04-29T08:56:37.665Z,56.76
2018-04-29T08:59:05.205Z,57.25
2018-04-29T09:01:32.980Z,57.27
2018-04-29T09:04:00.544Z,58.22
2018-04-29T09:06:28.079Z,59.20
2018-04-29T09:08:56.024Z,60.81
2018-04-29T09:11:23.565Z,60.79
2018-04-29T09:13:51.105Z,61.41
2018-04-29T09:16:18.844Z,62.89
2018-04-29T09:18:46.384Z,63.33
2018-04-29T09:21:13.928Z,63.68
2018-04-29T09:23:41.509Z,64.40
2018-04-29T09:26:10.033Z,65.60
2018-04-29T09:28:37.649Z,66.89
2018-04-29T09:31:05.182Z,67.45
2018-04-29T09:33:32.872Z,70.39
2018-04-29T09:36:00.394Z,72.05
2018-04-29T09:38:27.919Z,73.27
2018-04-29T09:40:55.696Z,74.64
2018-04-29T09:43:23.293Z,75.26
2018-04-29T09:45:50.792Z,75.48
2018-04-29T09:48:18.518Z,75.78
2018-04-29T09:50:46.059Z,75.73
2018-04-29T09:53:13.581Z,76.29
2018-04-29T09:55:41.290Z,76.73
2018-04-29T09:58:08.826Z,76.49
2018-04-29T10:00:36.388Z,76.44
2018-04-29T10:03:08.023Z,76.12
2018-04-29T10:05:36.034Z,77.13
2018-04-29T10:08:03.563Z,77.54
2018-04-29T10:10:31.265Z,77.12
2018-04-29T10:12:58.833Z,77.30
2018-04-29T10:15:26.535Z,77.16
2018-04-29T10:17:54.057Z,76.55
2018-04-29T10:20:21.608Z,76.84
2018-04-29T10:22:49.163Z,77.06
2018-04-29T10:25:16.718Z,77.10
2018-04-29T10:27:44.251Z,76.41
2018-04-29T10:30:11.811Z,77.49
2018-04-29T10:32:39.874Z,77.15
2018-04-29T10:35:07.411Z,76.86
2018-04-29T10:37:34.943Z,76.94
2018-04-29T10:40:02.527Z,76.60
2018-04-29T10:42:30.074Z,76.23
2018-04-29T10:44:57.631Z,76.31
2018-04-29T10:47:25.181Z,76.36
2018-04-29T10:49:52.733Z,75.42
2018-04-29T10:52:20.925Z,74.83
2018-04-29T10:54:48.427Z,75.49
2018-04-29T10:57:15.964Z,75.51
2018-04-29T10:59:43.557Z,75.14
2018-04-29T11:02:11.104Z,75.47
2018-04-29T11:04:38.680Z,75.61
2018-04-29T11:07:06.223Z,74.81
2018-04-29T11:09:33.811Z,74.64
2018-04-29T11:12:01.341Z,74.44
2018-04-29T11:14:28.914Z,74.66
2018-04-29T11:16:56.489Z,74.96
2018-04-29T11:19:24.024Z,75.25
2018-04-29T11:21:51.633Z,75.00
2018-04-29T11:24:19.138Z,75.28
2018-04-29T11:26:46.737Z,75.72
2018-04-29T11:29:14.267Z,76.29
2018-04-29T11:31:41.795Z,76.10
2018-04-29T11:34:09.355Z,75.95
2018-04-29T11:36:36.920Z,75.88
2018-04-29T11:39:04.475Z,76.04
2018-04-29T11:41:32.037Z,76.07
2018-04-29T11:43:59.581Z,75.86
2018-04-29T11:46:27.204Z,76.03
2018-04-29T11:48:54.739Z,75.63
2018-04-29T11:51:22.284Z,75.44
2018-04-29T11:53:49.834Z,74.70
2018-04-29T11:56:17.371Z,74.99
2018-04-29T11:58:44.931Z,75.37
2018-04-29T12:01:12.527Z,74.88
2018-04-29T12:03:40.157Z,74.59
2018-04-29T12:06:08.659Z,75.24
2018-04-29T12:08:36.193Z,74.98
2018-04-29T12:11:03.920Z,74.64
2018-04-29T12:13:31.497Z,74.73
2018-04-29T12:15:59.027Z,74.05
2018-04-29T12:18:26.583Z,73.69
2018-04-29T12:20:54.114Z,72.61
2018-04-29T12:23:21.891Z,71.48
2018-04-29T12:25:49.436Z,71.03
2018-04-29T12:28:16.978Z,71.32
2018-04-29T12:30:44.704Z,71.20
2018-04-29T12:33:12.243Z,71.17
2018-04-29T12:35:39.791Z,71.14
2018-04-29T12:38:07.355Z,70.15
2018-04-29T12:40:34.883Z,68.43
2018-04-29T12:43:02.424Z,68.78
2018-04-29T12:45:29.987Z,67.34
2018-04-29T12:47:57.529Z,67.53
2018-04-29T12:50:25.093Z,67.98
2018-04-29T12:52:52.627Z,68.49
2018-04-29T12:55:20.261Z,67.96
2018-04-29T12:57:47.787Z,66.64
2018-04-29T13:00:15.386Z,66.76
2018-04-29T13:02:42.946Z,65.83
2018-04-29T13:05:10.478Z,66.04
2018-04-29T13:07:38.021Z,65.95
2018-04-29T13:10:05.638Z,66.88
2018-04-29T13:12:33.174Z,67.07
2018-04-29T13:15:00.708Z,66.34
2018-04-29T13:17:28.296Z,65.73
2018-04-29T13:19:55.840Z,64.94
2018-04-29T13:22:23.369Z,63.29
2018-04-29T13:24:51.412Z,64.75
2018-04-29T13:27:18.946Z,65.55
2018-04-29T13:29:46.481Z,65.36
2018-04-29T13:32:14.129Z,65.42
2018-04-29T13:34:41.616Z,64.59
2018-04-29T13:37:09.392Z,63.49
2018-04-29T13:39:36.921Z,63.58
2018-04-29T13:42:04.486Z,62.99
2018-04-29T13:44:32.052Z,62.26
2018-04-29T13:46:59.585Z,61.82
2018-04-29T13:49:27.160Z,61.57
2018-04-29T13:51:54.702Z,62.05
2018-04-29T13:54:22.725Z,61.23
2018-04-29T13:56:50.260Z,60.79
2018-04-29T13:59:17.792Z,60.71
2018-04-29T14:01:45.359Z,62.22
2018-04-29T14:04:12.920Z,61.88
2018-04-29T14:06:40.452Z,63.12
2018-04-29T14:09:08.017Z,62.79
2018-04-29T14:11:35.552Z,62.46
2018-04-29T14:14:03.595Z,63.00
2018-04-29T14:16:31.122Z,63.44
2018-04-29T14:18:58.651Z,62.97
2018-04-29T14:21:26.221Z,62.61
2018-04-29T14:23:53.760Z,62.07
2018-04-29T14:26:21.736Z,61.68
2018-04-29T14:28:49.278Z,60.62
2018-04-29T14:31:16.897Z,60.82
2018-04-29T14:33:44.422Z,62.95
2018-04-29T14:36:11.952Z,63.02
2018-04-29T14:38:39.516Z,63.07
2018-04-29T14:41:07.049Z,62.92
2018-04-29T14:43:34.996Z,62.33
2018-04-29T14:46:02.523Z,62.74
2018-04-29T14:48:30.047Z,62.68
2018-04-29T14:50:57.811Z,62.88
2018-04-29T14:53:25.344Z,61.37
2018-04-29T14:55:52.937Z,61.30
2018-04-29T14:58:20.546Z,61.40
2018-04-29T15:00:48.079Z,62.72
2018-04-29T15:03:15.638Z,63.58
2018-04-29T15:05:43.194Z,64.39
2018-04-29T15:08:10.735Z,64.73
2018-04-29T15:10:38.503Z,64.27
2018-04-29T15:13:06.059Z,64.39
2018-04-29T15:15:33.605Z,64.51
2018-04-29T15:18:01.162Z,63.72
2018-04-29T15:20:28.695Z,63.33
2018-04-29T15:22:56.369Z,64.19
2018-04-29T15:25:23.975Z,64.49
2018-04-29T15:27:51.465Z,64.08
2018-04-29T15:30:19.405Z,64.73
2018-04-29T15:32:46.949Z,65.95
2018-04-29T15:35:14.483Z,64.91
2018-04-29T15:37:42.526Z,64.77
2018-04-29T15:40:10.063Z,64.72
2018-04-29T15:42:37.595Z,65.30
2018-04-29T15:45:05.181Z,64.72
2018-04-29T15:47:32.758Z,64.75
2018-04-29T15:50:00.296Z,65.25
2018-04-29T15:52:27.815Z,64.97
2018-04-29T15:54:55.379Z,64.78
2018-04-29T15:57:22.982Z,65.00
2018-04-29T15:59:50.567Z,65.61
2018-04-29T16:02:18.095Z,65.41
2018-04-29T16:04:45.653Z,66.44
2018-04-29T16:07:13.183Z,66.72
2018-04-29T16:09:40.736Z,67.28
2018-04-29T16:12:08.295Z,67.38
2018-04-29T16:14:35.830Z,67.10
2018-04-29T16:17:03.403Z,66.99
2018-04-29T16:19:30.942Z,66.99
2018-04-29T16:21:58.938Z,66.84
2018-04-29T16:24:26.475Z,67.23
2018-04-29T16:26:54.009Z,67.47
2018-04-29T16:29:21.563Z,67.37
2018-04-29T16:31:50.044Z,67.73
2018-04-29T16:34:17.652Z,68.05
2018-04-29T16:36:45.208Z,67.69
2018-04-29T16:39:12.787Z,68.35
2018-04-29T16:41:40.352Z,68.50
2018-04-29T16:44:07.997Z,68.79
2018-04-29T16:46:35.701Z,68.71
2018-04-29T16:49:03.301Z,68.93
2018-04-29T16:51:30.996Z,69.33
2018-04-29T16:53:58.568Z,68.92
2018-04-29T16:56:26.104Z,68.82
2018-04-29T16:58:53.687Z,68.71
2018-04-29T17:01:21.300Z,68.54
2018-04-29T17:03:49.335Z,68.52
2018-04-29T17:06:16.898Z,68.42
2018-04-29T17:08:44.430Z,68.29
2018-04-29T17:11:12.559Z,68.13
2018-04-29T17:13:40.108Z,67.45
2018-04-29T17:16:07.656Z,66.91
2018-04-29T17:18:35.207Z,65.97
2018-04-29T17:21:03.249Z,65.93
2018-04-29T17:23:30.839Z,66.98
2018-04-29T17:25:58.387Z,67.14
2018-04-29T17:28:25.921Z,67.23
2018-04-29T17:30:53.479Z,67.09
2018-04-29T17:33:21.011Z,67.51
2018-04-29T17:35:48.568Z,67.76
2018-04-29T17:38:16.115Z,67.68
2018-04-29T17:40:43.744Z,68.05
2018-04-29T17:43:11.280Z,68.29
2018-04-29T17:45:38.811Z,68.50
2018-04-29T17:48:06.879Z,68.38
2018-04-29T17:50:34.416Z,68.68
2018-04-29T17:53:01.960Z,68.90
2018-04-29T17:55:29.527Z,69.51
2018-04-29T17:57:57.059Z,69.80
2018-04-29T18:00:24.760Z,69.84
2018-04-29T18:02:52.295Z,70.12
2018-04-29T18:05:19.846Z,70.25
2018-04-29T18:07:47.375Z,70.75
2018-04-29T18:10:14.930Z,70.78
2018-04-29T18:12:42.466Z,71.05
2018-04-29T18:15:10.133Z,71.37
2018-04-29T18:17:37.658Z,71.36
2018-04-29T18:20:05.197Z,71.42
2018-04-29T18:22:32.760Z,71.56
2018-04-29T18:25:00.299Z,71.60
2018-04-29T18:27:27.867Z,71.87
2018-04-29T18:29:55.390Z,71.88
2018-04-29T18:32:22.954Z,72.01
2018-04-29T18:34:50.491Z,72.39
2018-04-29T18:37:18.114Z,72.11
2018-04-29T18:39:45.676Z,72.27
2018-04-29T18:42:13.213Z,72.33
2018-04-29T18:44:40.830Z,72.37
2018-04-29T18:47:08.345Z,72.35
2018-04-29T18:49:35.922Z,72.50
2018-04-29T18:52:03.464Z,72.56
2018-04-29T18:54:31.452Z,72.90
2018-04-29T18:56:58.979Z,72.95
2018-04-29T18:59:26.543Z,73.03
2018-04-29T19:01:54.095Z,73.04
2018-04-29T19:04:21.625Z,73.22
2018-04-29T19:06:49.617Z,73.29
2018-04-29T19:09:17.151Z,73.44
2018-04-29T19:11:44.692Z,73.37
2018-04-29T19:14:12.445Z,73.55
2018-04-29T19:16:39.919Z,73.47
2018-04-29T19:19:07.487Z,73.64
2018-04-29T19:21:35.167Z,73.92
2018-04-29T19:24:03.152Z,73.89
2018-04-29T19:26:30.694Z,74.09
2018-04-29T19:28:58.231Z,74.18
2018-04-29T19:31:25.966Z,74.33
2018-04-29T19:33:53.547Z,74.39
2018-04-29T19:36:21.078Z,74.82
2018-04-29T19:38:48.643Z,75.99
2018-04-29T19:41:16.179Z,77.19
2018-04-29T19:43:43.977Z,77.98
2018-04-29T19:46:11.511Z,78.29
2018-04-29T19:48:39.042Z,78.54
2018-04-29T19:51:06.767Z,78.63
2018-04-29T19:53:34.299Z,79.01
2018-04-29T19:56:01.830Z,79.05
2018-04-29T19:58:29.394Z,78.97
2018-04-29T20:00:56.929Z,78.85
2018-04-29T20:03:24.504Z,79.01
2018-04-29T20:05:52.056Z,79.27
2018-04-29T20:08:19.666Z,79.16
2018-04-29T20:10:47.209Z,79.18
2018-04-29T20:13:14.756Z,79.08
2018-04-29T20:15:42.407Z,79.11
2018-04-29T20:18:09.947Z,78.91
2018-04-29T20:20:37.855Z,78.89
2018-04-29T20:23:05.393Z,78.99
2018-04-29T20:25:32.924Z,78.83
2018-04-29T20:28:00.479Z,78.65
2018-04-29T20:30:28.016Z,78.63
2018-04-29T20:32:55.585Z,78.57
2018-04-29T20:35:23.171Z,78.25
2018-04-29T20:37:50.723Z,78.32
2018-04-29T20:40:18.323Z,78.07
2018-04-29T20:42:45.901Z,77.81
2018-04-29T20:45:13.443Z,77.74
2018-04-29T20:47:40.983Z,78.45
2018-04-29T20:50:08.537Z,78.62
2018-04-29T20:52:36.072Z,79.08
2018-04-29T20:55:03.651Z,79.75
2018-04-29T20:57:31.173Z,80.25
2018-04-29T20:59:58.927Z,80.66
2018-04-29T21:02:26.467Z,82.08
2018-04-29T21:04:54.000Z,83.24
2018-04-29T21:07:21.564Z,84.09
2018-04-29T21:09:49.085Z,84.87
2018-04-29T21:12:16.660Z,85.28
2018-04-29T21:14:44.674Z,85.79
2018-04-29T21:17:12.283Z,85.89
2018-04-29T21:19:39.758Z,85.92
2018-04-29T21:22:07.321Z,85.85
2018-04-29T21:24:34.863Z,85.52
2018-04-29T21:27:02.429Z,85.79
2018-04-29T21:29:29.972Z,85.44
2018-04-29T21:31:57.674Z,87.83
2018-04-29T21:34:25.222Z,90.59
2018-04-29T21:36:52.764Z,91.51
2018-04-29T21:39:20.492Z,91.48
2018-04-29T21:41:48.044Z,91.59
2018-04-29T21:44:15.606Z,92.06
2018-04-29T21:46:43.170Z,92.76
2018-04-29T21:49:10.731Z,93.24
2018-04-29T21:51:38.295Z,93.43
2018-04-29T21:54:05.846Z,93.52
2018-04-29T21:56:33.443Z,93.62
2018-04-29T21:59:01.285Z,93.66
2018-04-29T22:01:28.832Z,93.70
2018-04-29T22:03:56.365Z,93.71
2018-04-29T22:06:24.031Z,93.79
2018-04-29T22:08:51.572Z,93.84
2018-04-29T22:11:19.116Z,93.88
2018-04-29T22:13:46.785Z,93.85
2018-04-29T22:16:14.322Z,93.90
2018-04-29T22:18:41.859Z,93.91
2018-04-29T22:21:09.443Z,93.93
2018-04-29T22:23:36.972Z,93.97
2018-04-29T22:26:04.532Z,94.04
2018-04-29T22:28:32.093Z,94.09
2018-04-29T22:30:59.633Z,94.15
2018-04-29T22:33:27.311Z,94.14
2018-04-29T22:35:54.855Z,94.14
2018-04-29T22:38:22.395Z,94.14
2018-04-29T22:40:50.001Z,94.18
2018-04-29T22:43:17.539Z,94.18
2018-04-29T22:45:45.088Z,94.19
2018-04-29T22:48:12.676Z,94.18
2018-04-29T22:50:40.221Z,94.20
2018-04-29T22:53:07.757Z,94.24
2018-04-29T22:55:35.478Z,94.35
2018-04-29T22:58:03.029Z,94.40
2018-04-29T23:00:30.573Z,94.46
2018-04-29T23:02:58.139Z,94.55
2018-04-29T23:05:25.730Z,94.40
2018-04-29T23:07:53.262Z,94.33
2018-04-29T23:10:20.991Z,94.36
2018-04-29T23:12:48.574Z,94.34
2018-04-29T23:15:16.099Z,94.33
2018-04-29T23:17:43.668Z,94.33
2018-04-29T23:20:11.199Z,94.38
2018-04-29T23:22:38.792Z,94.47
2018-04-29T23:25:06.338Z,94.60
2018-04-29T23:27:33.874Z,94.80
2018-04-29T23:30:01.440Z,95.22
2018-04-29T23:32:29.169Z,95.47
2018-04-29T23:34:56.703Z,95.40
2018-04-29T23:37:24.242Z,95.36
2018-04-29T23:39:52.004Z,95.35
2018-04-29T23:42:19.534Z,95.30
2018-04-29T23:44:47.075Z,95.27
2018-04-29T23:47:14.664Z,95.25
2018-04-29T23:49:42.194Z,95.24
2018-04-29T23:52:09.722Z,95.21
2018-04-29T23:54:37.313Z,95.20
2018-04-29T23:57:04.851Z,95.22
2018-04-29T23:59:32.392Z,95.22
